Terminal Aerodrome Forecast
Issued by NWS

Home | Current Version | Previous Version | Text Only | Print | Product List | Glossary On
Versions: 1 2 3 4 5 6 7 8 9 10 11 12 13 14 15 16
000
FTUS45 KVEF 190500
TAFEED
TAF
KEED 190522Z 1906/2006 24008KT P6SM FEW100
     FM191000 VRB05KT P6SM SKC
     FM191900 18008KT P6SM FEW100
     FM200300 24007KT P6SM SKC=

USA.gov is the U.S. government's official web portal to all federal, state and local government web resources and services.